Terminal Aerodrome Forecast
Issued by NWS Shreveport, LA

Home | Current Version | Previous Version | Text Only | Print | Product List | Glossary On
Versions: 1 2 3 4 5 6 7 8 9 10 11 12 13 14 15 16
000
FTUS44 KSHV 221752
TAFELD
TAF
KELD 221752Z 2218/2318 16005KT P6SM FEW035 BKN045
     FM222000 15005KT P6SM BKN045
     FM230000 VRB03KT P6SM SCT050
     FM230400 00000KT P6SM FEW045
     FM231100 00000KT 6SM BR SCT025
     FM231400 07004KT P6SM BKN035=

USA.gov is the U.S. government's official web portal to all federal, state and local government web resources and services.